sensor_id;sensor_type;location;lat;lon;timestamp;P1;durP1;ratioP1;P2;durP2;ratioP2
21030;SDS011;61072;47.808;7.636;2022-11-15T05:11:46;4.53;;;2.67;;
21030;SDS011;61072;47.808;7.636;2022-11-15T05:14:13;3.95;;;2.00;;
21030;SDS011;61072;47.808;7.636;2022-11-15T05:16:40;3.58;;;2.17;;
21030;SDS011;61072;47.808;7.636;2022-11-15T05:19:07;5.10;;;2.30;;
21030;SDS011;61072;47.808;7.636;2022-11-15T05:21:34;3.97;;;2.75;;
21030;SDS011;61072;47.808;7.636;2022-11-15T05:24:02;6.22;;;3.03;;
21030;SDS011;61072;47.808;7.636;2022-11-15T05:26:29;3.15;;;2.50;;
21030;SDS011;61072;47.808;7.636;2022-11-15T05:28:56;3.15;;;2.42;;
21030;SDS011;61072;47.808;7.636;2022-11-15T05:31:25;4.60;;;2.45;;
21030;SDS011;61072;47.808;7.636;2022-11-15T05:33:53;4.95;;;2.05;;
21030;SDS011;61072;47.808;7.636;2022-11-15T05:36:29;3.42;;;2.35;;
21030;SDS011;61072;47.808;7.636;2022-11-15T05:39:08;5.78;;;2.65;;
21030;SDS011;61072;47.808;7.636;2022-11-15T05:41:39;4.35;;;2.58;;
21030;SDS011;61072;47.808;7.636;2022-11-15T05:44:10;3.90;;;2.83;;
21030;SDS011;61072;47.808;7.636;2022-11-15T05:46:40;5.75;;;2.88;;
21030;SDS011;61072;47.808;7.636;2022-11-15T05:49:09;5.22;;;2.78;;
21030;SDS011;61072;47.808;7.636;2022-11-15T05:51:40;4.50;;;2.70;;
21030;SDS011;61072;47.808;7.636;2022-11-15T05:54:09;5.18;;;2.65;;
21030;SDS011;61072;47.808;7.636;2022-11-15T05:56:37;6.40;;;2.65;;
21030;SDS011;61072;47.808;7.636;2022-11-15T05:59:04;3.15;;;2.15;;
21030;SDS011;61072;47.808;7.636;2022-11-15T06:01:31;3.60;;;2.40;;
21030;SDS011;61072;47.808;7.636;2022-11-15T06:03:58;3.67;;;2.42;;
21030;SDS011;61072;47.808;7.636;2022-11-15T06:06:24;5.68;;;2.30;;
21030;SDS011;61072;47.808;7.636;2022-11-15T06:08:53;9.13;;;2.97;;
21030;SDS011;61072;47.808;7.636;2022-11-15T06:11:19;7.57;;;2.35;;
21030;SDS011;61072;47.808;7.636;2022-11-15T06:13:46;5.28;;;2.20;;
21030;SDS011;61072;47.808;7.636;2022-11-15T06:16:13;4.22;;;2.53;;
21030;SDS011;61072;47.808;7.636;2022-11-15T06:18:39;5.75;;;2.42;;
21030;SDS011;61072;47.808;7.636;2022-11-15T06:21:06;3.78;;;2.10;;
21030;SDS011;61072;47.808;7.636;2022-11-15T06:23:33;4.00;;;2.40;;
21030;SDS011;61072;47.808;7.636;2022-11-15T06:26:01;4.07;;;2.60;;
21030;SDS011;61072;47.808;7.636;2022-11-15T06:28:32;8.57;;;5.43;;
21030;SDS011;61072;47.808;7.636;2022-11-15T06:31:06;9.15;;;5.20;;
21030;SDS011;61072;47.808;7.636;2022-11-15T06:33:34;8.90;;;3.63;;
21030;SDS011;61072;47.808;7.636;2022-11-15T06:36:02;4.93;;;2.35;;
21030;SDS011;61072;47.808;7.636;2022-11-15T06:38:30;5.60;;;3.15;;
21030;SDS011;61072;47.808;7.636;2022-11-15T06:41:03;9.35;;;5.47;;
21030;SDS011;61072;47.808;7.636;2022-11-15T06:43:32;4.57;;;3.25;;
21030;SDS011;61072;47.808;7.636;2022-11-15T06:46:00;6.55;;;3.42;;
21030;SDS011;61072;47.808;7.636;2022-11-15T06:48:28;4.60;;;2.72;;
21030;SDS011;61072;47.808;7.636;2022-11-15T06:50:57;6.35;;;2.45;;
21030;SDS011;61072;47.808;7.636;2022-11-15T06:53:25;4.03;;;1.90;;
21030;SDS011;61072;47.808;7.636;2022-11-15T06:55:53;2.88;;;1.90;;
21030;SDS011;61072;47.808;7.636;2022-11-15T06:58:24;3.25;;;2.05;;
21030;SDS011;61072;47.808;7.636;2022-11-15T07:00:50;4.10;;;2.28;;
21030;SDS011;61072;47.808;7.636;2022-11-15T07:03:17;5.63;;;1.98;;
21030;SDS011;61072;47.808;7.636;2022-11-15T07:05:51;3.70;;;2.33;;
21030;SDS011;61072;47.808;7.636;2022-11-15T07:08:19;3.75;;;2.22;;
21030;SDS011;61072;47.808;7.636;2022-11-15T07:10:46;2.67;;;2.13;;
21030;SDS011;61072;47.808;7.636;2022-11-15T07:13:12;3.30;;;1.90;;
21030;SDS011;61072;47.808;7.636;2022-11-15T07:15:39;4.28;;;2.15;;
21030;SDS011;61072;47.808;7.636;2022-11-15T07:18:06;3.15;;;1.98;;
21030;SDS011;61072;47.808;7.636;2022-11-15T07:20:33;3.30;;;2.25;;
21030;SDS011;61072;47.808;7.636;2022-11-15T07:23:00;3.97;;;2.45;;
21030;SDS011;61072;47.808;7.636;2022-11-15T07:25:31;3.38;;;2.17;;
21030;SDS011;61072;47.808;7.636;2022-11-15T07:27:59;4.18;;;2.58;;
21030;SDS011;61072;47.808;7.636;2022-11-15T07:30:26;3.30;;;1.88;;
21030;SDS011;61072;47.808;7.636;2022-11-15T07:32:54;6.03;;;2.40;;
21030;SDS011;61072;47.808;7.636;2022-11-15T07:35:25;7.20;;;2.40;;
21030;SDS011;61072;47.808;7.636;2022-11-15T07:37:54;2.67;;;1.60;;
21030;SDS011;61072;47.808;7.636;2022-11-15T07:40:29;4.20;;;2.25;;
21030;SDS011;61072;47.808;7.636;2022-11-15T07:43:00;2.95;;;2.17;;
21030;SDS011;61072;47.808;7.636;2022-11-15T07:45:28;8.07;;;5.00;;
21030;SDS011;61072;47.808;7.636;2022-11-15T07:47:55;8.20;;;5.95;;
21030;SDS011;61072;47.808;7.636;2022-11-15T07:50:23;6.75;;;4.50;;
21030;SDS011;61072;47.808;7.636;2022-11-15T07:52:54;8.13;;;5.22;;
21030;SDS011;61072;47.808;7.636;2022-11-15T07:55:22;7.88;;;4.78;;
21030;SDS011;61072;47.808;7.636;2022-11-15T07:57:49;9.32;;;5.07;;
21030;SDS011;61072;47.808;7.636;2022-11-15T08:00:16;6.40;;;4.13;;
21030;SDS011;61072;47.808;7.636;2022-11-15T08:02:44;10.30;;;4.50;;
21030;SDS011;61072;47.808;7.636;2022-11-15T08:05:11;8.55;;;5.00;;
21030;SDS011;61072;47.808;7.636;2022-11-15T08:07:38;8.02;;;4.88;;
21030;SDS011;61072;47.808;7.636;2022-11-15T08:10:06;10.02;;;5.57;;
21030;SDS011;61072;47.808;7.636;2022-11-15T08:12:34;8.23;;;6.10;;
21030;SDS011;61072;47.808;7.636;2022-11-15T08:15:00;9.95;;;5.55;;
21030;SDS011;61072;47.808;7.636;2022-11-15T08:17:27;8.90;;;5.30;;
21030;SDS011;61072;47.808;7.636;2022-11-15T08:19:58;9.27;;;4.93;;
21030;SDS011;61072;47.808;7.636;2022-11-15T08:22:24;7.78;;;4.22;;
21030;SDS011;61072;47.808;7.636;2022-11-15T08:24:51;7.07;;;3.53;;
21030;SDS011;61072;47.808;7.636;2022-11-15T08:27:18;5.35;;;3.13;;
21030;SDS011;61072;47.808;7.636;2022-11-15T08:29:45;5.82;;;2.85;;
21030;SDS011;61072;47.808;7.636;2022-11-15T08:32:12;6.43;;;2.85;;
21030;SDS011;61072;47.808;7.636;2022-11-15T08:34:39;3.55;;;2.20;;
21030;SDS011;61072;47.808;7.636;2022-11-15T08:37:05;7.30;;;2.35;;
21030;SDS011;61072;47.808;7.636;2022-11-15T08:39:32;4.53;;;2.45;;
21030;SDS011;61072;47.808;7.636;2022-11-15T08:41:59;3.47;;;2.35;;
21030;SDS011;61072;47.808;7.636;2022-11-15T08:44:26;4.10;;;2.75;;
21030;SDS011;61072;47.808;7.636;2022-11-15T08:46:52;5.97;;;3.03;;
21030;SDS011;61072;47.808;7.636;2022-11-15T08:49:19;6.85;;;4.25;;
21030;SDS011;61072;47.808;7.636;2022-11-15T08:51:46;5.03;;;3.22;;
21030;SDS011;61072;47.808;7.636;2022-11-15T08:54:12;6.95;;;3.53;;
21030;SDS011;61072;47.808;7.636;2022-11-15T08:56:39;5.05;;;3.35;;
21030;SDS011;61072;47.808;7.636;2022-11-15T08:59:06;5.68;;;3.17;;
21030;SDS011;61072;47.808;7.636;2022-11-15T09:01:33;5.30;;;3.70;;
21030;SDS011;61072;47.808;7.636;2022-11-15T09:03:59;5.18;;;3.42;;
21030;SDS011;61072;47.808;7.636;2022-11-15T09:06:26;5.40;;;3.15;;
21030;SDS011;61072;47.808;7.636;2022-11-15T09:08:53;6.15;;;2.80;;
21030;SDS011;61072;47.808;7.636;2022-11-15T09:11:20;4.57;;;3.17;;
21030;SDS011;61072;47.808;7.636;2022-11-15T09:13:48;5.70;;;3.78;;
21030;SDS011;61072;47.808;7.636;2022-11-15T09:16:15;8.55;;;3.90;;
21030;SDS011;61072;47.808;7.636;2022-11-15T09:18:42;5.28;;;3.65;;
21030;SDS011;61072;47.808;7.636;2022-11-15T09:21:09;5.57;;;3.28;;
21030;SDS011;61072;47.808;7.636;2022-11-15T09:23:36;5.38;;;3.42;;
21030;SDS011;61072;47.808;7.636;2022-11-15T09:26:03;5.35;;;4.30;;
21030;SDS011;61072;47.808;7.636;2022-11-15T09:28:31;5.32;;;3.40;;
21030;SDS011;61072;47.808;7.636;2022-11-15T09:31:00;6.15;;;4.00;;
21030;SDS011;61072;47.808;7.636;2022-11-15T09:33:28;4.32;;;3.03;;
21030;SDS011;61072;47.808;7.636;2022-11-15T09:36:00;4.20;;;3.33;;
21030;SDS011;61072;47.808;7.636;2022-11-15T09:38:28;4.82;;;2.67;;
21030;SDS011;61072;47.808;7.636;2022-11-15T09:41:08;3.58;;;2.95;;
21030;SDS011;61072;47.808;7.636;2022-11-15T09:46:20;6.60;;;3.75;;
21030;SDS011;61072;47.808;7.636;2022-11-15T09:48:59;8.45;;;7.60;;
21030;SDS011;61072;47.808;7.636;2022-11-15T09:51:32;14.60;;;13.13;;
21030;SDS011;61072;47.808;7.636;2022-11-15T09:54:22;11.23;;;9.52;;
21030;SDS011;61072;47.808;7.636;2022-11-15T09:57:30;10.90;;;9.80;;
21030;SDS011;61072;47.808;7.636;2022-11-15T10:00:16;12.82;;;8.70;;
21030;SDS011;61072;47.808;7.636;2022-11-15T10:03:16;12.70;;;11.38;;
21030;SDS011;61072;47.808;7.636;2022-11-15T10:05:49;10.68;;;7.18;;
21030;SDS011;61072;47.808;7.636;2022-11-15T10:11:17;9.23;;;7.20;;
21030;SDS011;61072;47.808;7.636;2022-11-15T10:14:14;13.82;;;10.13;;
21030;SDS011;61072;47.808;7.636;2022-11-15T10:17:02;15.93;;;14.25;;
21030;SDS011;61072;47.808;7.636;2022-11-15T10:19:47;13.68;;;11.43;;
21030;SDS011;61072;47.808;7.636;2022-11-15T10:28:09;4.88;;;3.25;;
21030;SDS011;61072;47.808;7.636;2022-11-15T10:30:53;5.50;;;3.25;;
21030;SDS011;61072;47.808;7.636;2022-11-15T10:41:37;6.38;;;3.00;;
21030;SDS011;61072;47.808;7.636;2022-11-15T10:46:46;5.47;;;3.20;;
21030;SDS011;61072;47.808;7.636;2022-11-15T10:49:23;8.02;;;3.25;;
21030;SDS011;61072;47.808;7.636;2022-11-15T10:51:58;8.63;;;6.63;;
21030;SDS011;61072;47.808;7.636;2022-11-15T10:57:05;7.57;;;5.43;;
21030;SDS011;61072;47.808;7.636;2022-11-15T10:59:36;4.07;;;3.10;;
21030;SDS011;61072;47.808;7.636;2022-11-15T11:05:02;6.30;;;3.80;;
21030;SDS011;61072;47.808;7.636;2022-11-15T11:07:55;4.03;;;2.78;;
21030;SDS011;61072;47.808;7.636;2022-11-15T11:10:23;6.13;;;3.03;;
21030;SDS011;61072;47.808;7.636;2022-11-15T11:13:14;4.00;;;2.78;;
21030;SDS011;61072;47.808;7.636;2022-11-15T11:15:51;8.63;;;3.35;;
21030;SDS011;61072;47.808;7.636;2022-11-15T11:18:34;4.47;;;3.47;;
21030;SDS011;61072;47.808;7.636;2022-11-15T11:24:12;6.82;;;2.78;;
21030;SDS011;61072;47.808;7.636;2022-11-15T11:30:01;7.20;;;4.03;;
21030;SDS011;61072;47.808;7.636;2022-11-15T11:32:40;5.00;;;3.78;;
21030;SDS011;61072;47.808;7.636;2022-11-15T11:35:32;5.28;;;3.67;;
21030;SDS011;61072;47.808;7.636;2022-11-15T11:46:47;5.35;;;3.50;;
21030;SDS011;61072;47.808;7.636;2022-11-15T11:49:20;6.72;;;4.38;;
21030;SDS011;61072;47.808;7.636;2022-11-15T11:51:54;10.23;;;6.38;;
21030;SDS011;61072;47.808;7.636;2022-11-15T11:54:58;9.93;;;3.67;;
21030;SDS011;61072;47.808;7.636;2022-11-15T12:00:47;9.93;;;3.60;;
21030;SDS011;61072;47.808;7.636;2022-11-15T12:05:54;6.05;;;4.00;;
21030;SDS011;61072;47.808;7.636;2022-11-15T12:08:40;9.65;;;4.10;;
21030;SDS011;61072;47.808;7.636;2022-11-15T12:11:14;4.22;;;3.20;;
21030;SDS011;61072;47.808;7.636;2022-11-15T12:13:50;5.07;;;3.60;;
21030;SDS011;61072;47.808;7.636;2022-11-15T12:16:31;8.48;;;4.07;;
21030;SDS011;61072;47.808;7.636;2022-11-15T12:19:00;7.88;;;3.83;;
21030;SDS011;61072;47.808;7.636;2022-11-15T12:21:36;8.73;;;5.80;;
21030;SDS011;61072;47.808;7.636;2022-11-15T12:30:00;8.93;;;6.88;;
21030;SDS011;61072;47.808;7.636;2022-11-15T12:32:31;12.50;;;6.88;;
21030;SDS011;61072;47.808;7.636;2022-11-15T12:35:05;6.80;;;5.00;;
21030;SDS011;61072;47.808;7.636;2022-11-15T12:37:50;10.07;;;4.80;;
21030;SDS011;61072;47.808;7.636;2022-11-15T12:40:22;8.77;;;4.00;;
21030;SDS011;61072;47.808;7.636;2022-11-15T12:45:29;11.82;;;4.82;;
21030;SDS011;61072;47.808;7.636;2022-11-15T13:02:16;5.85;;;3.83;;
21030;SDS011;61072;47.808;7.636;2022-11-15T13:06:53;10.05;;;4.30;;
21030;SDS011;61072;47.808;7.636;2022-11-15T13:12:00;6.82;;;5.40;;
21030;SDS011;61072;47.808;7.636;2022-11-15T13:19:46;10.63;;;7.10;;
21030;SDS011;61072;47.808;7.636;2022-11-15T13:22:18;10.00;;;6.45;;
21030;SDS011;61072;47.808;7.636;2022-11-15T13:25:03;11.32;;;6.65;;
21030;SDS011;61072;47.808;7.636;2022-11-15T13:27:40;18.30;;;14.57;;
21030;SDS011;61072;47.808;7.636;2022-11-15T13:30:16;14.15;;;11.50;;
21030;SDS011;61072;47.808;7.636;2022-11-15T13:32:49;12.73;;;8.27;;
21030;SDS011;61072;47.808;7.636;2022-11-15T13:35:20;12.95;;;6.88;;
21030;SDS011;61072;47.808;7.636;2022-11-15T13:37:55;10.55;;;6.25;;
21030;SDS011;61072;47.808;7.636;2022-11-15T13:40:27;8.10;;;6.07;;
21030;SDS011;61072;47.808;7.636;2022-11-15T13:42:57;10.75;;;6.05;;
21030;SDS011;61072;47.808;7.636;2022-11-15T13:45:24;9.73;;;6.30;;
21030;SDS011;61072;47.808;7.636;2022-11-15T13:47:56;11.65;;;7.30;;
21030;SDS011;61072;47.808;7.636;2022-11-15T13:50:28;12.90;;;6.95;;
21030;SDS011;61072;47.808;7.636;2022-11-15T13:52:58;11.38;;;6.57;;
21030;SDS011;61072;47.808;7.636;2022-11-15T13:55:27;11.82;;;4.80;;
21030;SDS011;61072;47.808;7.636;2022-11-15T13:57:59;11.75;;;4.95;;
21030;SDS011;61072;47.808;7.636;2022-11-15T14:03:05;11.83;;;7.97;;
21030;SDS011;61072;47.808;7.636;2022-11-15T14:06:07;16.30;;;11.18;;
21030;SDS011;61072;47.808;7.636;2022-11-15T14:08:33;13.25;;;10.82;;
21030;SDS011;61072;47.808;7.636;2022-11-15T14:11:17;13.13;;;10.23;;
21030;SDS011;61072;47.808;7.636;2022-11-15T14:16:50;41.28;;;24.50;;
21030;SDS011;61072;47.808;7.636;2022-11-15T14:24:35;10.90;;;7.22;;
21030;SDS011;61072;47.808;7.636;2022-11-15T14:27:15;7.70;;;3.45;;
21030;SDS011;61072;47.808;7.636;2022-11-15T14:29:53;6.55;;;3.65;;
21030;SDS011;61072;47.808;7.636;2022-11-15T14:32:23;6.88;;;3.88;;
21030;SDS011;61072;47.808;7.636;2022-11-15T14:34:59;6.18;;;3.35;;
21030;SDS011;61072;47.808;7.636;2022-11-15T14:37:28;11.02;;;4.38;;
21030;SDS011;61072;47.808;7.636;2022-11-15T14:40:04;9.20;;;4.93;;
21030;SDS011;61072;47.808;7.636;2022-11-15T14:42:32;8.25;;;4.32;;
21030;SDS011;61072;47.808;7.636;2022-11-15T14:44:58;7.10;;;4.00;;
21030;SDS011;61072;47.808;7.636;2022-11-15T14:47:25;5.68;;;4.03;;
21030;SDS011;61072;47.808;7.636;2022-11-15T14:49:52;6.05;;;3.60;;
21030;SDS011;61072;47.808;7.636;2022-11-15T14:54:58;10.63;;;5.28;;
21030;SDS011;61072;47.808;7.636;2022-11-15T14:57:25;7.63;;;4.68;;
21030;SDS011;61072;47.808;7.636;2022-11-15T14:59:52;6.53;;;4.97;;
21030;SDS011;61072;47.808;7.636;2022-11-15T15:02:20;5.05;;;4.20;;
21030;SDS011;61072;47.808;7.636;2022-11-15T15:04:51;6.93;;;4.05;;
21030;SDS011;61072;47.808;7.636;2022-11-15T15:07:18;9.43;;;4.28;;
21030;SDS011;61072;47.808;7.636;2022-11-15T15:09:45;6.78;;;4.22;;
21030;SDS011;61072;47.808;7.636;2022-11-15T15:12:20;8.93;;;5.20;;
21030;SDS011;61072;47.808;7.636;2022-11-15T15:14:48;6.82;;;4.63;;
21030;SDS011;61072;47.808;7.636;2022-11-15T15:17:16;6.95;;;4.90;;
21030;SDS011;61072;47.808;7.636;2022-11-15T15:19:43;7.00;;;4.75;;
21030;SDS011;61072;47.808;7.636;2022-11-15T15:22:14;7.55;;;5.45;;
21030;SDS011;61072;47.808;7.636;2022-11-15T15:24:43;11.02;;;6.05;;
21030;SDS011;61072;47.808;7.636;2022-11-15T15:27:11;7.68;;;4.90;;
21030;SDS011;61072;47.808;7.636;2022-11-15T15:29:38;8.20;;;5.75;;
21030;SDS011;61072;47.808;7.636;2022-11-15T15:32:06;10.48;;;5.15;;
21030;SDS011;61072;47.808;7.636;2022-11-15T15:34:33;8.77;;;5.30;;
21030;SDS011;61072;47.808;7.636;2022-11-15T15:37:16;8.82;;;5.95;;
21030;SDS011;61072;47.808;7.636;2022-11-15T15:39:50;10.45;;;6.93;;
21030;SDS011;61072;47.808;7.636;2022-11-15T15:42:18;13.52;;;8.88;;
21030;SDS011;61072;47.808;7.636;2022-11-15T15:44:46;8.55;;;6.25;;
21030;SDS011;61072;47.808;7.636;2022-11-15T15:47:13;9.15;;;6.22;;
21030;SDS011;61072;47.808;7.636;2022-11-15T15:49:48;10.13;;;5.80;;
21030;SDS011;61072;47.808;7.636;2022-11-15T15:52:16;11.35;;;5.15;;
21030;SDS011;61072;47.808;7.636;2022-11-15T15:54:43;13.82;;;6.55;;
21030;SDS011;61072;47.808;7.636;2022-11-15T15:57:11;9.88;;;5.47;;
21030;SDS011;61072;47.808;7.636;2022-11-15T15:59:39;9.60;;;6.28;;
21030;SDS011;61072;47.808;7.636;2022-11-15T16:02:06;7.30;;;5.50;;
21030;SDS011;61072;47.808;7.636;2022-11-15T16:04:35;179.52;;;63.20;;
21030;SDS011;61072;47.808;7.636;2022-11-15T16:07:01;78.47;;;29.35;;
21030;SDS011;61072;47.808;7.636;2022-11-15T16:09:29;37.25;;;15.60;;
21030;SDS011;61072;47.808;7.636;2022-11-15T16:12:15;19.83;;;10.35;;
21030;SDS011;61072;47.808;7.636;2022-11-15T16:14:42;11.43;;;6.68;;
21030;SDS011;61072;47.808;7.636;2022-11-15T16:17:52;12.98;;;7.07;;
21030;SDS011;61072;47.808;7.636;2022-11-15T16:20:01;14.75;;;6.47;;
21030;SDS011;61072;47.808;7.636;2022-11-15T16:22:28;11.13;;;6.20;;
21030;SDS011;61072;47.808;7.636;2022-11-15T16:24:55;9.40;;;5.45;;
21030;SDS011;61072;47.808;7.636;2022-11-15T16:27:22;12.52;;;6.47;;
21030;SDS011;61072;47.808;7.636;2022-11-15T16:29:49;9.93;;;6.38;;
21030;SDS011;61072;47.808;7.636;2022-11-15T16:32:16;12.00;;;5.78;;
21030;SDS011;61072;47.808;7.636;2022-11-15T16:34:43;8.95;;;6.15;;
21030;SDS011;61072;47.808;7.636;2022-11-15T16:37:21;10.63;;;5.95;;
21030;SDS011;61072;47.808;7.636;2022-11-15T16:39:49;12.05;;;7.10;;
21030;SDS011;61072;47.808;7.636;2022-11-15T16:42:16;12.68;;;8.18;;
21030;SDS011;61072;47.808;7.636;2022-11-15T16:44:43;13.45;;;8.18;;
21030;SDS011;61072;47.808;7.636;2022-11-15T16:47:19;12.45;;;8.40;;
21030;SDS011;61072;47.808;7.636;2022-11-15T16:49:46;10.88;;;7.93;;
21030;SDS011;61072;47.808;7.636;2022-11-15T16:52:13;13.23;;;8.80;;
21030;SDS011;61072;47.808;7.636;2022-11-15T16:54:46;15.23;;;8.65;;
21030;SDS011;61072;47.808;7.636;2022-11-15T16:57:13;12.75;;;8.93;;
21030;SDS011;61072;47.808;7.636;2022-11-15T16:59:39;14.25;;;9.43;;
21030;SDS011;61072;47.808;7.636;2022-11-15T17:02:12;11.60;;;9.07;;
21030;SDS011;61072;47.808;7.636;2022-11-15T17:04:39;12.85;;;9.70;;
21030;SDS011;61072;47.808;7.636;2022-11-15T17:07:06;14.55;;;10.82;;
21030;SDS011;61072;47.808;7.636;2022-11-15T17:09:33;14.93;;;10.10;;
21030;SDS011;61072;47.808;7.636;2022-11-15T17:12:00;13.88;;;10.07;;
21030;SDS011;61072;47.808;7.636;2022-11-15T17:14:27;11.02;;;7.53;;
21030;SDS011;61072;47.808;7.636;2022-11-15T17:16:54;10.90;;;8.30;;
21030;SDS011;61072;47.808;7.636;2022-11-15T17:19:21;13.65;;;9.20;;
21030;SDS011;61072;47.808;7.636;2022-11-15T17:21:47;15.20;;;11.30;;
21030;SDS011;61072;47.808;7.636;2022-11-15T17:24:15;20.40;;;12.60;;
21030;SDS011;61072;47.808;7.636;2022-11-15T17:26:42;12.27;;;9.35;;
21030;SDS011;61072;47.808;7.636;2022-11-15T17:29:09;14.00;;;10.13;;
21030;SDS011;61072;47.808;7.636;2022-11-15T17:31:36;16.33;;;9.73;;
21030;SDS011;61072;47.808;7.636;2022-11-15T17:34:04;17.33;;;10.98;;
21030;SDS011;61072;47.808;7.636;2022-11-15T17:36:31;17.30;;;9.43;;
21030;SDS011;61072;47.808;7.636;2022-11-15T17:38:59;19.88;;;11.10;;
21030;SDS011;61072;47.808;7.636;2022-11-15T17:41:26;13.23;;;9.95;;
21030;SDS011;61072;47.808;7.636;2022-11-15T17:43:54;16.40;;;8.82;;
21030;SDS011;61072;47.808;7.636;2022-11-15T17:46:25;12.93;;;9.52;;
21030;SDS011;61072;47.808;7.636;2022-11-15T17:48:53;18.58;;;10.38;;
21030;SDS011;61072;47.808;7.636;2022-11-15T17:51:20;11.32;;;8.77;;
21030;SDS011;61072;47.808;7.636;2022-11-15T17:53:49;21.40;;;14.68;;
21030;SDS011;61072;47.808;7.636;2022-11-15T17:56:20;21.27;;;13.82;;
21030;SDS011;61072;47.808;7.636;2022-11-15T17:58:49;25.17;;;15.98;;
21030;SDS011;61072;47.808;7.636;2022-11-15T18:03:52;33.10;;;22.58;;
21030;SDS011;61072;47.808;7.636;2022-11-15T18:06:20;23.40;;;15.82;;
21030;SDS011;61072;47.808;7.636;2022-11-15T18:08:49;21.80;;;16.10;;
21030;SDS011;61072;47.808;7.636;2022-11-15T18:11:20;30.52;;;20.90;;
21030;SDS011;61072;47.808;7.636;2022-11-15T18:13:59;25.25;;;17.98;;
21030;SDS011;61072;47.808;7.636;2022-11-15T18:16:28;30.30;;;21.33;;
21030;SDS011;61072;47.808;7.636;2022-11-15T18:18:56;27.85;;;21.02;;
21030;SDS011;61072;47.808;7.636;2022-11-15T18:21:26;28.25;;;18.80;;
21030;SDS011;61072;47.808;7.636;2022-11-15T18:23:58;23.45;;;18.35;;
21030;SDS011;61072;47.808;7.636;2022-11-15T18:26:26;27.25;;;20.27;;
21030;SDS011;61072;47.808;7.636;2022-11-15T18:28:55;29.55;;;20.17;;
21030;SDS011;61072;47.808;7.636;2022-11-15T18:31:24;19.30;;;13.60;;
21030;SDS011;61072;47.808;7.636;2022-11-15T18:33:52;17.30;;;11.80;;
21030;SDS011;61072;47.808;7.636;2022-11-15T18:36:21;18.05;;;12.75;;
21030;SDS011;61072;47.808;7.636;2022-11-15T18:38:56;13.60;;;10.30;;
21030;SDS011;61072;47.808;7.636;2022-11-15T18:41:24;14.40;;;8.70;;
21030;SDS011;61072;47.808;7.636;2022-11-15T18:43:53;11.45;;;8.15;;
21030;SDS011;61072;47.808;7.636;2022-11-15T18:46:22;12.57;;;9.13;;
21030;SDS011;61072;47.808;7.636;2022-11-15T18:48:50;13.70;;;8.30;;
21030;SDS011;61072;47.808;7.636;2022-11-15T18:51:19;11.30;;;7.53;;
21030;SDS011;61072;47.808;7.636;2022-11-15T18:53:47;12.93;;;7.95;;
21030;SDS011;61072;47.808;7.636;2022-11-15T18:56:15;12.85;;;7.45;;
21030;SDS011;61072;47.808;7.636;2022-11-15T18:58:46;10.90;;;6.47;;
21030;SDS011;61072;47.808;7.636;2022-11-15T19:01:29;9.93;;;6.10;;
21030;SDS011;61072;47.808;7.636;2022-11-15T19:04:02;8.63;;;6.07;;
21030;SDS011;61072;47.808;7.636;2022-11-15T19:06:31;8.48;;;5.68;;
21030;SDS011;61072;47.808;7.636;2022-11-15T19:09:01;8.52;;;5.43;;
21030;SDS011;61072;47.808;7.636;2022-11-15T19:11:28;21.63;;;14.75;;
21030;SDS011;61072;47.808;7.636;2022-11-15T19:14:02;24.35;;;16.80;;
21030;SDS011;61072;47.808;7.636;2022-11-15T19:16:31;25.75;;;16.55;;
21030;SDS011;61072;47.808;7.636;2022-11-15T19:19:00;23.88;;;13.63;;
21030;SDS011;61072;47.808;7.636;2022-11-15T19:21:29;20.65;;;13.82;;
21030;SDS011;61072;47.808;7.636;2022-11-15T19:23:56;19.27;;;13.88;;
21030;SDS011;61072;47.808;7.636;2022-11-15T19:26:24;16.15;;;12.57;;
21030;SDS011;61072;47.808;7.636;2022-11-15T19:28:56;17.65;;;12.02;;
21030;SDS011;61072;47.808;7.636;2022-11-15T19:31:24;19.55;;;13.50;;
21030;SDS011;61072;47.808;7.636;2022-11-15T19:33:53;27.17;;;16.73;;
21030;SDS011;61072;47.808;7.636;2022-11-15T19:36:24;18.55;;;12.43;;
21030;SDS011;61072;47.808;7.636;2022-11-15T19:38:54;14.65;;;10.52;;
21030;SDS011;61072;47.808;7.636;2022-11-15T19:41:21;19.85;;;12.43;;
21030;SDS011;61072;47.808;7.636;2022-11-15T19:43:49;15.60;;;10.35;;
21030;SDS011;61072;47.808;7.636;2022-11-15T19:46:20;13.88;;;8.75;;
21030;SDS011;61072;47.808;7.636;2022-11-15T19:48:49;13.23;;;9.25;;
21030;SDS011;61072;47.808;7.636;2022-11-15T19:51:20;27.48;;;17.23;;
21030;SDS011;61072;47.808;7.636;2022-11-15T19:53:52;35.42;;;21.98;;
21030;SDS011;61072;47.808;7.636;2022-11-15T19:56:21;38.13;;;22.83;;
21030;SDS011;61072;47.808;7.636;2022-11-15T19:58:49;23.48;;;14.85;;
21030;SDS011;61072;47.808;7.636;2022-11-15T20:01:21;18.05;;;11.25;;
21030;SDS011;61072;47.808;7.636;2022-11-15T20:03:49;18.08;;;10.30;;
21030;SDS011;61072;47.808;7.636;2022-11-15T20:09:07;15.75;;;8.30;;
21030;SDS011;61072;47.808;7.636;2022-11-15T20:11:36;12.60;;;8.00;;
21030;SDS011;61072;47.808;7.636;2022-11-15T20:14:04;18.30;;;8.23;;
21030;SDS011;61072;47.808;7.636;2022-11-15T20:16:36;11.20;;;6.93;;
21030;SDS011;61072;47.808;7.636;2022-11-15T20:19:03;14.93;;;11.05;;
21030;SDS011;61072;47.808;7.636;2022-11-15T20:21:30;16.88;;;12.20;;
21030;SDS011;61072;47.808;7.636;2022-11-15T20:23:57;20.55;;;14.45;;
21030;SDS011;61072;47.808;7.636;2022-11-15T20:26:23;18.13;;;12.27;;
21030;SDS011;61072;47.808;7.636;2022-11-15T20:28:50;13.35;;;9.95;;
21030;SDS011;61072;47.808;7.636;2022-11-15T20:31:17;12.57;;;9.13;;
21030;SDS011;61072;47.808;7.636;2022-11-15T20:33:44;13.98;;;11.00;;
21030;SDS011;61072;47.808;7.636;2022-11-15T20:36:12;17.27;;;10.73;;
21030;SDS011;61072;47.808;7.636;2022-11-15T20:38:40;9.73;;;7.68;;
21030;SDS011;61072;47.808;7.636;2022-11-15T20:41:08;8.82;;;6.60;;
21030;SDS011;61072;47.808;7.636;2022-11-15T20:43:35;12.57;;;7.47;;
21030;SDS011;61072;47.808;7.636;2022-11-15T20:46:02;15.50;;;9.27;;
21030;SDS011;61072;47.808;7.636;2022-11-15T20:48:29;14.13;;;9.20;;
21030;SDS011;61072;47.808;7.636;2022-11-15T20:51:03;13.82;;;8.95;;
21030;SDS011;61072;47.808;7.636;2022-11-15T20:53:37;21.55;;;11.82;;
21030;SDS011;61072;47.808;7.636;2022-11-15T20:56:06;19.00;;;9.68;;
21030;SDS011;61072;47.808;7.636;2022-11-15T20:58:35;12.27;;;7.88;;
21030;SDS011;61072;47.808;7.636;2022-11-15T21:01:03;9.20;;;5.65;;
21030;SDS011;61072;47.808;7.636;2022-11-15T21:03:31;5.18;;;2.58;;
21030;SDS011;61072;47.808;7.636;2022-11-15T21:05:58;5.97;;;3.17;;
21030;SDS011;61072;47.808;7.636;2022-11-15T21:08:25;4.15;;;2.33;;
21030;SDS011;61072;47.808;7.636;2022-11-15T21:10:52;2.42;;;1.58;;
21030;SDS011;61072;47.808;7.636;2022-11-15T21:13:38;3.70;;;1.25;;
21030;SDS011;61072;47.808;7.636;2022-11-15T21:16:04;3.08;;;1.48;;
21030;SDS011;61072;47.808;7.636;2022-11-15T21:18:32;4.72;;;1.30;;
21030;SDS011;61072;47.808;7.636;2022-11-15T21:21:03;1.67;;;1.05;;
21030;SDS011;61072;47.808;7.636;2022-11-15T21:23:30;3.55;;;1.33;;
21030;SDS011;61072;47.808;7.636;2022-11-15T21:25:57;2.60;;;1.10;;
21030;SDS011;61072;47.808;7.636;2022-11-15T21:28:24;3.17;;;0.93;;
21030;SDS011;61072;47.808;7.636;2022-11-15T21:30:55;3.38;;;1.00;;
21030;SDS011;61072;47.808;7.636;2022-11-15T21:33:23;4.10;;;1.08;;
21030;SDS011;61072;47.808;7.636;2022-11-15T21:35:53;2.50;;;1.10;;
21030;SDS011;61072;47.808;7.636;2022-11-15T21:38:21;5.03;;;1.40;;
21030;SDS011;61072;47.808;7.636;2022-11-15T21:40:49;4.63;;;1.60;;
21030;SDS011;61072;47.808;7.636;2022-11-15T21:43:17;2.33;;;0.90;;
21030;SDS011;61072;47.808;7.636;2022-11-15T21:45:54;1.75;;;1.30;;
21030;SDS011;61072;47.808;7.636;2022-11-15T21:48:22;2.42;;;1.27;;
21030;SDS011;61072;47.808;7.636;2022-11-15T21:50:55;1.20;;;1.02;;